createdAt,value
2022-09-03T06:51:44.161Z,5.60
2022-09-03T06:54:53.745Z,5.17
2022-09-03T06:58:03.160Z,5.43
2022-09-03T07:01:14.890Z,3.67
2022-09-03T07:04:24.792Z,4.63
2022-09-03T07:07:35.454Z,6.50
2022-09-03T07:10:48.904Z,5.33
2022-09-03T07:13:59.369Z,6.50
2022-09-03T07:17:08.793Z,6.53
2022-09-03T07:20:18.223Z,6.13
2022-09-03T07:23:32.053Z,6.07
2022-09-03T07:26:44.476Z,6.40
2022-09-03T07:29:54.037Z,5.83
2022-09-03T07:33:04.392Z,7.50
2022-09-03T07:36:16.056Z,4.23
2022-09-03T07:39:28.668Z,5.10
2022-09-03T07:42:40.274Z,4.73
2022-09-03T07:45:51.625Z,4.57
2022-09-03T07:49:02.685Z,4.00
2022-09-03T07:52:12.205Z,5.77
2022-09-03T07:55:27.591Z,6.53
2022-09-03T07:58:37.960Z,6.73
2022-09-03T08:01:47.410Z,6.77
2022-09-03T08:05:04.010Z,6.53
2022-09-03T08:08:15.517Z,5.07
2022-09-03T08:11:31.272Z,4.70
2022-09-03T08:14:42.742Z,5.73
2022-09-03T08:18:03.511Z,6.07
2022-09-03T08:21:17.406Z,6.73
2022-09-03T08:24:27.061Z,4.70
2022-09-03T08:27:37.761Z,5.20
2022-09-03T08:42:20.484Z,8.00
2022-09-03T08:45:32.720Z,6.93
2022-09-03T08:48:42.199Z,7.07
2022-09-03T08:51:55.619Z,5.90
2022-09-03T08:55:19.092Z,6.60
2022-09-03T08:58:33.414Z,5.57
2022-09-03T09:01:56.233Z,6.50
2022-09-03T09:05:14.381Z,6.40
2022-09-03T09:08:31.034Z,4.47
2022-09-03T09:11:50.241Z,5.50
2022-09-03T09:15:10.966Z,5.10
2022-09-03T09:18:32.163Z,6.03
2022-09-03T09:21:46.803Z,5.63
2022-09-03T09:25:00.085Z,6.20
2022-09-03T09:28:17.131Z,5.40
2022-09-03T09:31:30.787Z,5.57
2022-09-03T09:34:42.050Z,5.23
2022-09-03T09:37:53.673Z,5.43
2022-09-03T09:41:10.773Z,4.70
2022-09-03T09:44:21.946Z,5.60
2022-09-03T09:47:38.126Z,4.73
2022-09-03T09:50:49.137Z,4.27
2022-09-03T09:54:03.839Z,3.93
2022-09-03T09:57:18.448Z,5.80
2022-09-03T10:00:28.154Z,4.60
2022-09-03T10:03:42.920Z,3.97
2022-09-03T10:06:57.777Z,4.73
2022-09-03T10:10:15.987Z,4.27
2022-09-03T10:13:42.849Z,3.90
2022-09-03T10:17:02.213Z,3.40
2022-09-03T10:20:27.109Z,2.60
2022-09-03T10:23:50.040Z,3.33
2022-09-03T10:26:59.483Z,3.07
2022-09-03T10:30:10.044Z,3.10
2022-09-03T10:33:26.769Z,2.33
2022-09-03T10:36:41.539Z,3.90
2022-09-03T10:40:05.506Z,4.50
2022-09-03T10:43:33.039Z,4.10
2022-09-03T10:46:56.376Z,3.30
2022-09-03T10:50:16.172Z,4.03
2022-09-03T10:53:38.508Z,4.93
2022-09-03T10:56:58.310Z,4.53
2022-09-03T11:00:12.767Z,4.23
2022-09-03T11:03:44.885Z,4.40
2022-09-03T11:07:01.792Z,4.00
2022-09-03T11:10:17.659Z,4.20
2022-09-03T11:13:35.673Z,3.67
2022-09-03T11:16:49.211Z,2.77
2022-09-03T11:20:09.206Z,3.10
2022-09-03T11:23:20.823Z,2.03
2022-09-03T11:26:31.286Z,2.37
2022-09-03T11:29:50.761Z,2.40
2022-09-03T11:33:09.205Z,3.47
2022-09-03T11:36:30.990Z,3.33
2022-09-03T11:39:41.592Z,3.13
2022-09-03T11:42:51.164Z,3.63
2022-09-03T11:46:11.892Z,3.73
2022-09-03T11:49:30.941Z,3.50
2022-09-03T11:52:40.766Z,3.57
2022-09-03T11:55:55.497Z,3.50
2022-09-03T11:59:18.924Z,4.00
2022-09-03T12:02:34.258Z,4.23
2022-09-03T12:05:53.547Z,4.83
2022-09-03T12:09:18.498Z,4.50
2022-09-03T12:12:46.062Z,4.13
2022-09-03T12:16:20.876Z,4.20
2022-09-03T12:19:40.972Z,3.50
2022-09-03T12:22:50.436Z,3.43
2022-09-03T12:26:04.849Z,3.83
2022-09-03T12:29:26.639Z,3.70
2022-09-03T12:32:38.036Z,2.83
2022-09-03T12:35:59.057Z,2.90
2022-09-03T12:39:13.262Z,2.50
2022-09-03T12:42:27.285Z,3.10
2022-09-03T12:49:31.737Z,3.27
2022-09-03T12:52:49.871Z,2.90
2022-09-03T12:56:02.222Z,2.83
2022-09-03T12:59:16.507Z,3.50
2022-09-03T13:02:31.551Z,3.60
2022-09-03T13:05:49.122Z,3.70
2022-09-03T13:09:02.890Z,2.67
2022-09-03T13:12:24.151Z,3.53
2022-09-03T13:15:34.304Z,3.00
2022-09-03T13:18:48.740Z,3.20
2022-09-03T13:22:05.665Z,2.97
2022-09-03T13:25:25.759Z,2.90
2022-09-03T13:28:48.893Z,2.70
2022-09-03T13:32:06.200Z,2.40
2022-09-03T13:35:27.976Z,2.60
2022-09-03T13:38:44.048Z,2.43
2022-09-03T13:41:59.495Z,2.10
2022-09-03T13:45:21.945Z,2.20
2022-09-03T13:48:46.357Z,1.80
2022-09-03T13:52:00.121Z,1.93
2022-09-03T13:55:16.138Z,1.60
2022-09-03T13:58:32.026Z,1.80
2022-09-03T14:01:59.788Z,1.70
2022-09-03T14:05:16.259Z,1.80
2022-09-03T14:08:33.489Z,1.70
2022-09-03T14:11:58.742Z,1.80
2022-09-03T14:15:21.570Z,1.80
2022-09-03T14:18:42.422Z,1.80
2022-09-03T14:21:57.417Z,2.00
2022-09-03T14:25:15.621Z,1.70
2022-09-03T14:28:32.604Z,1.80
2022-09-03T14:32:01.747Z,1.70
2022-09-03T14:35:31.752Z,1.83
2022-09-03T14:39:09.794Z,1.80
2022-09-03T14:42:37.807Z,1.80
2022-09-03T14:46:03.692Z,1.87
2022-09-03T14:49:28.138Z,1.97
2022-09-03T14:52:59.000Z,2.13
2022-09-03T14:56:26.799Z,2.07
2022-09-03T14:59:52.782Z,2.10
2022-09-03T15:03:21.489Z,2.20
2022-09-03T15:06:51.630Z,2.30
2022-09-03T15:10:13.227Z,2.10
2022-09-03T15:13:26.126Z,2.13
2022-09-03T15:16:48.153Z,2.10
2022-09-03T15:20:10.977Z,2.30
2022-09-03T15:23:26.855Z,2.80
2022-09-03T15:26:48.382Z,1.57
2022-09-03T15:30:06.190Z,1.30
2022-09-03T15:33:28.913Z,1.40
2022-09-03T15:36:42.201Z,0.80
2022-09-03T15:40:04.086Z,0.70
2022-09-03T15:43:22.038Z,0.80
2022-09-03T15:46:40.918Z,0.80
2022-09-03T15:50:00.206Z,0.80
2022-09-03T15:53:25.483Z,0.80
2022-09-03T15:56:43.868Z,0.83
2022-09-03T16:00:02.739Z,1.20
2022-09-03T16:03:24.265Z,1.60
2022-09-03T16:06:44.182Z,1.30
2022-09-03T16:10:24.159Z,1.27
2022-09-03T16:13:50.193Z,1.40
2022-09-03T16:17:06.323Z,1.10
2022-09-03T16:20:22.194Z,1.20
2022-09-03T16:23:39.337Z,1.30
2022-09-03T16:26:56.143Z,1.33
2022-09-03T16:30:13.214Z,1.13
2022-09-03T16:33:35.522Z,0.80
2022-09-03T16:36:54.899Z,1.20
2022-09-03T16:40:16.097Z,1.00
2022-09-03T16:43:41.126Z,1.50
2022-09-03T16:47:02.033Z,1.07
2022-09-03T16:50:26.949Z,1.00
2022-09-03T16:53:52.600Z,1.30
2022-09-03T16:57:15.372Z,1.10
2022-09-03T17:00:29.679Z,1.90
2022-09-03T17:03:56.691Z,1.27
2022-09-03T17:07:24.266Z,0.93
2022-09-03T17:10:44.860Z,1.17
2022-09-03T17:14:10.008Z,1.30
2022-09-03T17:17:34.471Z,1.40
2022-09-03T17:20:56.159Z,2.00
2022-09-03T17:24:24.411Z,2.63
2022-09-03T17:27:48.056Z,2.20
2022-09-03T17:30:59.261Z,2.30
2022-09-03T17:34:20.036Z,1.40
2022-09-03T17:37:43.782Z,2.33
2022-09-03T17:41:04.803Z,2.27
2022-09-03T17:44:20.885Z,1.70
2022-09-03T17:47:49.956Z,1.90
2022-09-03T17:51:05.915Z,1.70
2022-09-03T17:54:27.964Z,1.60
2022-09-03T17:57:44.391Z,1.80
2022-09-03T18:01:01.831Z,1.47
2022-09-03T18:04:25.027Z,1.77
2022-09-03T18:07:44.740Z,1.70
2022-09-03T18:11:09.800Z,2.30
2022-09-03T18:14:27.038Z,2.30
2022-09-03T18:17:45.689Z,1.97
2022-09-03T18:21:30.899Z,2.60
2022-09-03T18:24:55.537Z,2.60
2022-09-03T18:28:21.377Z,2.00
2022-09-03T18:31:46.697Z,3.17
2022-09-03T18:35:07.687Z,2.10
2022-09-03T18:38:43.404Z,2.13
2022-09-03T18:42:17.749Z,2.60
2022-09-03T18:46:34.221Z,2.00
2022-09-03T18:49:41.508Z,2.80
2022-09-03T18:53:08.143Z,3.50
2022-09-03T18:56:41.225Z,3.73
2022-09-03T19:00:13.954Z,13.03
2022-09-03T19:03:51.476Z,4.03
2022-09-03T19:07:20.706Z,2.60
2022-09-03T19:10:50.268Z,1.90
2022-09-03T19:14:21.098Z,1.97
2022-09-03T19:17:50.881Z,2.50
2022-09-03T19:21:27.475Z,2.70
2022-09-03T19:24:49.167Z,2.77
2022-09-03T19:28:21.932Z,2.13
2022-09-03T19:31:55.187Z,3.33
2022-09-03T19:35:27.022Z,2.13
2022-09-03T19:39:01.585Z,2.60
2022-09-03T19:42:30.738Z,1.90
2022-09-03T19:46:03.715Z,2.57
2022-09-03T19:49:35.411Z,2.47
2022-09-03T19:53:04.413Z,2.87
2022-09-03T19:56:37.500Z,3.50
2022-09-03T20:00:01.100Z,2.37
2022-09-03T20:03:25.457Z,8.57
2022-09-03T20:06:48.321Z,2.20
2022-09-03T20:10:15.981Z,2.67
2022-09-03T20:13:49.520Z,5.03
2022-09-03T20:17:15.696Z,2.47
2022-09-03T20:20:34.395Z,3.53
2022-09-03T20:23:52.206Z,2.20
2022-09-03T20:27:11.793Z,1.87
2022-09-03T20:30:28.379Z,1.63
2022-09-03T20:33:50.668Z,1.97
2022-09-03T20:37:16.157Z,2.07
2022-09-03T20:40:35.631Z,1.87
2022-09-03T20:44:00.051Z,2.10
2022-09-03T20:47:26.652Z,2.20
2022-09-03T20:50:45.997Z,2.00
2022-09-03T20:54:11.048Z,2.10
2022-09-03T20:57:33.211Z,1.60
2022-09-03T21:00:50.852Z,2.93
2022-09-03T21:04:18.852Z,1.70
2022-09-03T21:07:42.128Z,1.73
2022-09-03T21:10:57.613Z,1.80
2022-09-03T21:14:19.864Z,2.20
2022-09-03T21:17:42.526Z,2.40
2022-09-03T21:21:02.826Z,2.03
2022-09-03T21:24:17.621Z,1.83
2022-09-03T21:27:34.332Z,2.30
2022-09-03T21:30:49.265Z,2.07
2022-09-03T21:34:08.665Z,2.00
2022-09-03T21:37:20.649Z,2.50
2022-09-03T21:40:32.311Z,2.00
2022-09-03T21:43:49.721Z,1.80
2022-09-03T21:47:03.151Z,2.17
2022-09-03T21:50:18.993Z,2.20
2022-09-03T21:53:33.637Z,2.07
2022-09-03T21:56:54.717Z,2.90
2022-09-03T22:00:12.532Z,1.90
2022-09-03T22:03:23.001Z,2.93
2022-09-03T22:06:39.773Z,1.70
2022-09-03T22:09:59.209Z,1.97
2022-09-03T22:13:23.378Z,2.40
2022-09-03T22:16:39.446Z,2.30
2022-09-03T22:19:48.932Z,1.60
2022-09-03T22:23:05.754Z,2.27
